createdAt,value
2023-02-26T00:02:11.925Z,99667.88
2023-02-26T00:04:45.924Z,99671.13
2023-02-26T00:07:18.249Z,99672.69
2023-02-26T00:09:47.303Z,99678.36
2023-02-26T00:12:18.996Z,99680.20
2023-02-26T00:14:50.070Z,99685.26
2023-02-26T00:17:40.493Z,99685.66
2023-02-26T00:20:13.879Z,99690.73
2023-02-26T00:22:45.332Z,99692.95
2023-02-26T00:25:16.374Z,99698.29
2023-02-26T00:27:53.410Z,99702.18
2023-02-26T00:30:23.812Z,99702.36
2023-02-26T00:32:56.910Z,99701.53
2023-02-26T00:35:27.627Z,99707.55
2023-02-26T00:38:07.657Z,99705.10
2023-02-26T00:40:47.026Z,99712.73
2023-02-26T00:43:47.527Z,99717.52
2023-02-26T00:46:34.685Z,99719.13
2023-02-26T00:49:24.673Z,99723.96
2023-02-26T00:52:06.466Z,99721.27
2023-02-26T00:54:36.602Z,99722.23
2023-02-26T00:57:07.242Z,99721.53
2023-02-26T00:59:52.851Z,99719.65
2023-02-26T01:02:32.665Z,99726.05
2023-02-26T01:05:08.723Z,99725.16
2023-02-26T01:07:56.784Z,99732.15
2023-02-26T01:10:34.225Z,99738.77
2023-02-26T01:13:08.562Z,99742.34
2023-02-26T01:15:42.168Z,99742.31
2023-02-26T01:18:28.075Z,99743.50
2023-02-26T01:21:04.622Z,99747.59
2023-02-26T01:24:05.895Z,99748.57
2023-02-26T01:26:42.821Z,99750.36
2023-02-26T01:29:22.636Z,99753.70
2023-02-26T01:32:12.282Z,99757.84
2023-02-26T01:35:04.505Z,99760.77
2023-02-26T01:37:44.519Z,99759.70
2023-02-26T01:40:53.774Z,99759.62
2023-02-26T01:44:16.947Z,99762.89
2023-02-26T01:47:09.233Z,99767.82
2023-02-26T01:49:58.078Z,99774.35
2023-02-26T01:52:56.917Z,99783.02
2023-02-26T01:55:29.279Z,99784.19
2023-02-26T01:58:02.806Z,99787.58
2023-02-26T02:00:34.909Z,99788.57
2023-02-26T02:03:06.166Z,99789.20
2023-02-26T02:06:12.877Z,99794.41
2023-02-26T02:08:47.134Z,99800.23
2023-02-26T02:11:18.342Z,99801.96
2023-02-26T02:14:19.735Z,99807.77
2023-02-26T02:17:18.346Z,99807.20
2023-02-26T02:20:00.936Z,99811.40
2023-02-26T02:22:55.359Z,99816.17
2023-02-26T02:26:07.101Z,99821.18
2023-02-26T02:29:12.295Z,99826.87
2023-02-26T02:32:10.770Z,99827.98
2023-02-26T02:34:46.194Z,99828.79
2023-02-26T02:37:26.584Z,99833.55
2023-02-26T02:40:06.057Z,99836.77
2023-02-26T02:43:15.923Z,99840.31
2023-02-26T02:45:56.576Z,99842.86
2023-02-26T02:48:39.629Z,99844.96
2023-02-26T02:51:19.344Z,99847.42
2023-02-26T02:54:22.872Z,99850.59
2023-02-26T02:57:09.025Z,99857.44
2023-02-26T02:59:52.990Z,99860.28
2023-02-26T03:03:00.652Z,99861.66
2023-02-26T03:05:31.337Z,99870.34
2023-02-26T03:08:15.120Z,99874.11
2023-02-26T03:10:46.516Z,99879.08
2023-02-26T03:13:42.535Z,99888.08
2023-02-26T03:16:54.048Z,99896.04
2023-02-26T03:20:11.015Z,99897.15
2023-02-26T03:23:17.348Z,99904.80
2023-02-26T03:26:21.565Z,99904.02
2023-02-26T03:29:27.616Z,99908.61
2023-02-26T03:32:53.243Z,99919.52
2023-02-26T03:36:07.367Z,99925.39
2023-02-26T03:39:36.931Z,99930.68
2023-02-26T03:42:21.729Z,99934.30
2023-02-26T03:45:19.602Z,99940.02
2023-02-26T03:47:55.144Z,99944.00
2023-02-26T03:51:05.609Z,99947.75
2023-02-26T03:54:31.146Z,99950.02
2023-02-26T03:57:20.197Z,99952.80
2023-02-26T04:00:18.091Z,99959.55
2023-02-26T04:03:08.173Z,99961.83
2023-02-26T04:05:54.656Z,99967.61
2023-02-26T04:08:27.803Z,99971.33
2023-02-26T04:11:20.541Z,99973.61
2023-02-26T04:14:17.219Z,99973.64
2023-02-26T04:16:49.198Z,99975.33
2023-02-26T04:19:22.205Z,99982.61
2023-02-26T04:23:12.390Z,99991.27
2023-02-26T04:25:41.143Z,99992.30
2023-02-26T04:28:13.447Z,99986.96
2023-02-26T04:30:45.508Z,99995.00
2023-02-26T04:33:16.683Z,99997.49
2023-02-26T04:35:47.390Z,99995.75
2023-02-26T04:38:34.518Z,99999.08
2023-02-26T04:41:09.357Z,100007.84
2023-02-26T04:43:39.908Z,100009.89
2023-02-26T04:46:17.797Z,100011.53
2023-02-26T04:48:47.207Z,100012.61
2023-02-26T04:51:34.996Z,100017.52
2023-02-26T04:57:06.105Z,100031.41
2023-02-26T05:00:04.550Z,100033.73
2023-02-26T05:03:05.594Z,100038.77
2023-02-26T05:05:58.498Z,100040.20
2023-02-26T05:11:46.986Z,100048.89
2023-02-26T05:38:00.608Z,100085.95
2023-02-26T05:50:05.182Z,100100.95
2023-02-26T05:59:41.421Z,100126.83
2023-02-26T06:02:26.018Z,100131.02
2023-02-26T06:24:47.963Z,100159.50
2023-02-26T06:31:11.019Z,100171.30
2023-02-26T06:37:31.945Z,100186.11
2023-02-26T06:41:00.020Z,100188.84
2023-02-26T06:53:15.705Z,100208.08
2023-02-26T06:55:55.531Z,100210.95
2023-02-26T06:58:26.174Z,100217.21
2023-02-26T07:01:04.418Z,100221.48
2023-02-26T07:03:40.052Z,100221.64
2023-02-26T07:06:26.488Z,100228.45
2023-02-26T07:09:02.328Z,100227.85
2023-02-26T07:11:33.136Z,100229.85
2023-02-26T07:14:07.082Z,100235.35
2023-02-26T07:16:35.693Z,100238.96
2023-02-26T07:19:04.504Z,100245.76
2023-02-26T07:21:33.451Z,100243.30
2023-02-26T07:24:02.716Z,100244.85
2023-02-26T07:26:32.137Z,100254.89
2023-02-26T07:29:01.691Z,100257.70
2023-02-26T08:07:52.578Z,100320.77
2023-02-26T08:11:02.302Z,100326.46
2023-02-26T08:13:32.059Z,100332.11
2023-02-26T08:16:01.339Z,100340.48
2023-02-26T08:18:30.724Z,100342.27
2023-02-26T08:20:59.389Z,100350.02
2023-02-26T08:23:28.245Z,100350.98
2023-02-26T08:26:16.710Z,100359.27
2023-02-26T08:29:13.201Z,100367.06
2023-02-26T08:32:06.923Z,100369.54
2023-02-26T09:29:19.936Z,100474.22
2023-02-26T09:32:05.909Z,100480.02
2023-02-26T09:35:26.943Z,100485.83
2023-02-26T09:38:00.598Z,100488.21
2023-02-26T09:41:00.461Z,100497.25
2023-02-26T09:44:04.465Z,100500.73
2023-02-26T09:46:40.655Z,100506.48
2023-02-26T09:49:26.870Z,100506.40
2023-02-26T09:52:35.466Z,100512.80
2023-02-26T09:55:33.035Z,100517.77
2023-02-26T09:58:36.129Z,100525.35
2023-02-26T10:01:26.954Z,100528.96
2023-02-26T10:04:20.741Z,100533.45
2023-02-26T10:07:01.958Z,100534.88
2023-02-26T10:09:58.535Z,100536.22
2023-02-26T10:12:38.185Z,100543.94
2023-02-26T10:15:12.661Z,100544.14
2023-02-26T10:17:52.627Z,100543.38
2023-02-26T10:20:39.980Z,100546.52
2023-02-26T10:23:33.450Z,100547.89
2023-02-26T10:26:37.589Z,100555.15
2023-02-26T10:29:55.170Z,100554.85
2023-02-26T10:32:54.758Z,100559.99
2023-02-26T10:36:13.441Z,100565.02
2023-02-26T10:43:03.608Z,100567.48
2023-02-26T10:46:14.959Z,100569.08
2023-02-26T10:49:10.230Z,100571.30
2023-02-26T10:51:43.423Z,100585.69
2023-02-26T10:54:29.746Z,100590.46
2023-02-26T10:57:01.874Z,100592.17
2023-02-26T11:00:07.235Z,100600.56
2023-02-26T11:03:11.805Z,100603.71
2023-02-26T11:06:47.648Z,100608.94
2023-02-26T11:10:08.727Z,100611.27
2023-02-26T11:13:17.026Z,100612.98
2023-02-26T11:15:53.022Z,100616.89
2023-02-26T11:18:57.430Z,100618.89
2023-02-26T11:21:38.513Z,100621.80
2023-02-26T11:24:37.185Z,100623.69
2023-02-26T11:27:16.563Z,100626.65
2023-02-26T11:30:25.705Z,100629.51
2023-02-26T11:33:06.792Z,100628.89
2023-02-26T11:36:40.706Z,100630.39
2023-02-26T11:39:53.548Z,100630.87
2023-02-26T11:51:34.838Z,100636.34
2023-02-26T12:18:02.418Z,100667.27
2023-02-26T12:26:17.931Z,100675.14
2023-02-26T12:30:03.760Z,100683.24
2023-02-26T12:33:37.434Z,100679.40
2023-02-26T12:41:43.451Z,100685.55
2023-02-26T12:55:41.259Z,100700.64
2023-02-26T12:59:56.211Z,100703.16
2023-02-26T13:08:25.782Z,100711.94
2023-02-26T13:11:33.308Z,100717.59
2023-02-26T13:14:23.322Z,100719.38
2023-02-26T13:17:13.923Z,100724.65
2023-02-26T13:19:53.082Z,100723.50
2023-02-26T13:22:41.089Z,100728.09
2023-02-26T13:25:41.655Z,100728.75
2023-02-26T13:28:40.237Z,100727.39
2023-02-26T13:31:19.471Z,100730.36
2023-02-26T13:33:52.214Z,100732.55
2023-02-26T13:36:27.065Z,100733.69
2023-02-26T13:39:14.971Z,100735.91
2023-02-26T13:42:29.144Z,100741.65
2023-02-26T13:45:54.633Z,100751.77
2023-02-26T13:48:57.724Z,100751.85
2023-02-26T13:51:56.825Z,100758.79
2023-02-26T13:54:47.421Z,100758.51
2023-02-26T13:57:27.945Z,100761.45
2023-02-26T14:00:50.297Z,100763.36
2023-02-26T14:04:41.339Z,100764.41
2023-02-26T14:08:38.385Z,100766.52
2023-02-26T14:17:28.146Z,100760.06
2023-02-26T14:52:30.613Z,100810.27
2023-02-26T14:55:32.764Z,100813.09
2023-02-26T14:58:42.769Z,100815.85
2023-02-26T15:01:30.223Z,100820.00
2023-02-26T15:04:36.233Z,100820.20
2023-02-26T15:07:36.721Z,100830.14
2023-02-26T15:10:45.230Z,100832.92
2023-02-26T15:13:34.491Z,100835.02
2023-02-26T15:16:13.977Z,100834.95
2023-02-26T15:19:16.806Z,100839.30
2023-02-26T15:22:07.384Z,100846.77
2023-02-26T15:24:37.091Z,100849.20
2023-02-26T15:27:12.008Z,100850.54
2023-02-26T15:29:43.475Z,100849.62
2023-02-26T15:32:27.902Z,100846.73
2023-02-26T15:35:09.504Z,100854.33
2023-02-26T15:37:39.303Z,100856.96
2023-02-26T15:40:10.380Z,100855.62
2023-02-26T15:42:42.235Z,100859.76
2023-02-26T15:45:32.520Z,100862.15
2023-02-26T15:48:08.570Z,100860.56
2023-02-26T15:50:42.110Z,100862.83
2023-02-26T15:53:35.193Z,100870.42
2023-02-26T15:56:23.406Z,100870.77
2023-02-26T15:59:03.372Z,100874.06
2023-02-26T16:01:32.770Z,100876.95
2023-02-26T16:04:08.802Z,100885.06
2023-02-26T16:06:49.289Z,100888.05
2023-02-26T16:09:32.412Z,100891.37
2023-02-26T16:12:13.344Z,100897.71
2023-02-26T16:14:49.189Z,100900.85
2023-02-26T16:17:31.780Z,100905.77
2023-02-26T16:20:11.124Z,100906.46
2023-02-26T16:22:51.906Z,100911.14
2023-02-26T16:25:35.954Z,100913.39
2023-02-26T16:28:21.652Z,100916.09
2023-02-26T16:30:56.609Z,100920.36
2023-02-26T16:33:28.622Z,100921.66
2023-02-26T16:36:17.675Z,100926.32
2023-02-26T16:39:08.880Z,100932.45
2023-02-26T16:41:43.292Z,100929.67
2023-02-26T16:44:33.414Z,100936.45
2023-02-26T16:47:23.742Z,100939.67
2023-02-26T16:49:58.862Z,100947.98
2023-02-26T16:52:30.899Z,100951.70
2023-02-26T16:55:11.919Z,100950.67
2023-02-26T16:57:46.029Z,100964.67
2023-02-26T17:00:33.808Z,100966.89
2023-02-26T17:03:07.141Z,100968.20
2023-02-26T17:05:59.330Z,100971.85
2023-02-26T17:08:36.583Z,100979.67
2023-02-26T17:11:18.536Z,100984.45
2023-02-26T17:14:12.978Z,100987.25
2023-02-26T17:16:44.621Z,100992.19
2023-02-26T17:19:16.080Z,100998.56
2023-02-26T17:21:55.718Z,100999.72
2023-02-26T17:24:32.725Z,101001.86
2023-02-26T17:27:06.496Z,101006.81
2023-02-26T17:29:39.936Z,101005.15
2023-02-26T17:32:23.431Z,101009.84
2023-02-26T17:34:54.002Z,101009.59
2023-02-26T17:37:32.287Z,101014.24
2023-02-26T17:40:04.474Z,101015.92
2023-02-26T17:42:37.642Z,101017.23
2023-02-26T17:45:07.561Z,101019.80
2023-02-26T17:47:36.476Z,101022.65
2023-02-26T17:50:45.444Z,101025.97
2023-02-26T17:53:21.976Z,101032.55
2023-02-26T17:55:54.149Z,101032.21
2023-02-26T17:58:35.818Z,101032.71
2023-02-26T18:01:05.460Z,101030.20
2023-02-26T18:03:34.523Z,101032.83
2023-02-26T18:06:04.681Z,101032.84
2023-02-26T18:08:36.504Z,101032.10
2023-02-26T18:11:05.458Z,101034.14
2023-02-26T18:13:35.717Z,101036.61
2023-02-26T18:16:05.958Z,101037.54
2023-02-26T18:18:36.124Z,101038.80
2023-02-26T18:21:06.570Z,101047.42
2023-02-26T18:23:35.383Z,101047.05
2023-02-26T18:26:04.733Z,101046.82
2023-02-26T18:28:34.068Z,101047.73
2023-02-26T18:31:09.233Z,101051.58
2023-02-26T18:33:42.907Z,101058.18
2023-02-26T18:36:38.234Z,101062.17
2023-02-26T18:39:13.639Z,101058.88
2023-02-26T18:41:44.614Z,101059.66
2023-02-26T18:44:13.359Z,101063.84
2023-02-26T18:46:43.076Z,101067.42
2023-02-26T18:49:19.000Z,101071.88
2023-02-26T18:51:48.154Z,101074.60
2023-02-26T18:54:17.811Z,101075.27
2023-02-26T18:56:47.556Z,101077.34
2023-02-26T18:59:16.257Z,101084.98
2023-02-26T19:01:49.573Z,101088.59
2023-02-26T19:04:25.424Z,101091.52
2023-02-26T19:06:56.092Z,101095.66
2023-02-26T19:09:31.365Z,101097.37
2023-02-26T19:12:06.125Z,101103.61
2023-02-26T19:14:36.108Z,101109.21
2023-02-26T19:17:06.364Z,101106.02
2023-02-26T19:19:45.794Z,101106.26
2023-02-26T19:22:16.964Z,101104.48
2023-02-26T19:24:50.446Z,101108.09
2023-02-26T19:27:21.301Z,101108.34
2023-02-26T19:29:50.933Z,101118.41
2023-02-26T19:32:21.993Z,101118.45
2023-02-26T19:34:53.047Z,101121.48
2023-02-26T19:37:26.988Z,101126.69
2023-02-26T19:39:56.683Z,101129.19
2023-02-26T19:42:28.661Z,101131.94
2023-02-26T19:44:59.857Z,101130.86
2023-02-26T19:50:12.139Z,101139.13
2023-02-26T19:52:43.363Z,101150.80
2023-02-26T19:55:15.256Z,101161.42
2023-02-26T19:57:48.344Z,101163.98
2023-02-26T20:00:22.740Z,101167.54
2023-02-26T20:05:38.040Z,101174.84
2023-02-26T20:11:06.520Z,101181.17
2023-02-26T20:13:36.764Z,101187.48
2023-02-26T20:16:09.367Z,101188.25
2023-02-26T20:18:40.524Z,101189.20
2023-02-26T20:21:14.521Z,101189.02
2023-02-26T20:23:56.947Z,101189.61
2023-02-26T20:26:26.578Z,101190.40
2023-02-26T20:29:01.697Z,101193.95
2023-02-26T20:31:32.326Z,101200.53
2023-02-26T20:34:01.864Z,101204.68
2023-02-26T20:36:35.736Z,101206.89
2023-02-26T20:39:07.609Z,101210.35
2023-02-26T20:41:36.773Z,101214.27
2023-02-26T20:44:05.897Z,101221.13
2023-02-26T20:46:36.647Z,101226.09
2023-02-26T20:49:14.073Z,101225.29
2023-02-26T20:51:44.573Z,101229.49
2023-02-26T20:54:17.077Z,101235.17
2023-02-26T20:56:46.170Z,101235.48
2023-02-26T20:59:19.646Z,101235.80
2023-02-26T21:01:52.064Z,101235.80
2023-02-26T21:04:23.229Z,101240.54
2023-02-26T21:06:52.864Z,101241.31
2023-02-26T21:09:21.949Z,101240.89
2023-02-26T21:11:52.773Z,101239.22
2023-02-26T21:14:22.120Z,101242.05
2023-02-26T21:17:00.470Z,101244.00
2023-02-26T21:19:29.570Z,101246.63
2023-02-26T21:22:06.348Z,101249.84
2023-02-26T21:24:36.311Z,101245.46
2023-02-26T21:27:07.405Z,101250.47
2023-02-26T21:29:36.655Z,101251.45
2023-02-26T21:32:07.563Z,101253.13
2023-02-26T21:34:36.912Z,101255.98
2023-02-26T21:37:11.469Z,101258.66
2023-02-26T21:39:44.075Z,101261.83
2023-02-26T21:42:16.834Z,101264.65
2023-02-26T21:44:47.957Z,101266.64
2023-02-26T21:47:19.276Z,101265.91
2023-02-26T21:49:51.838Z,101267.17
2023-02-26T21:52:21.538Z,101265.34
2023-02-26T21:54:50.943Z,101265.86
2023-02-26T21:57:19.955Z,101266.07
2023-02-26T21:59:51.422Z,101269.34
2023-02-26T22:02:20.565Z,101267.38
2023-02-26T22:04:50.077Z,101265.67
2023-02-26T22:07:20.219Z,101269.45
2023-02-26T22:09:50.762Z,101271.08
2023-02-26T22:12:21.927Z,101272.86
2023-02-26T22:14:51.100Z,101271.69
2023-02-26T22:17:20.329Z,101275.30
2023-02-26T22:19:49.649Z,101280.23
2023-02-26T22:22:20.654Z,101280.95
2023-02-26T22:24:52.233Z,101281.14
2023-02-26T22:27:22.820Z,101282.42
2023-02-26T22:29:53.813Z,101288.29
2023-02-26T22:32:24.096Z,101294.71
2023-02-26T22:34:56.209Z,101298.20
2023-02-26T22:37:25.323Z,101299.52
2023-02-26T22:39:55.252Z,101298.52
2023-02-26T22:42:25.150Z,101301.00
2023-02-26T22:44:54.207Z,101302.48
2023-02-26T22:47:23.675Z,101299.41
2023-02-26T22:49:53.763Z,101301.40
2023-02-26T22:52:27.829Z,101303.89
2023-02-26T22:54:58.340Z,101299.39
2023-02-26T22:57:30.246Z,101303.96
2023-02-26T23:00:00.086Z,101302.40
2023-02-26T23:02:30.306Z,101300.75
2023-02-26T23:05:00.261Z,101303.00
2023-02-26T23:07:32.509Z,101299.65
2023-02-26T23:10:02.318Z,101302.52
2023-02-26T23:12:37.058Z,101303.05
2023-02-26T23:15:09.309Z,101307.72
2023-02-26T23:17:38.358Z,101306.71
2023-02-26T23:20:10.398Z,101305.71
2023-02-26T23:22:43.191Z,101308.59
2023-02-26T23:25:13.644Z,101305.69
2023-02-26T23:27:46.066Z,101312.87
2023-02-26T23:30:16.974Z,101319.42
2023-02-26T23:32:49.750Z,101315.62
2023-02-26T23:35:19.036Z,101319.27
2023-02-26T23:37:50.027Z,101324.66
2023-02-26T23:40:22.322Z,101326.26
2023-02-26T23:42:51.436Z,101329.39
2023-02-26T23:45:24.376Z,101328.36
2023-02-26T23:47:57.129Z,101329.15
2023-02-26T23:50:32.426Z,101332.08
2023-02-26T23:53:02.182Z,101334.08
2023-02-26T23:55:32.497Z,101333.70
2023-02-26T23:58:06.537Z,101331.19
